Time;durP1;ratioP1;P1;durP2;ratioP2;P2;SDS_P1;SDS_P2;PMS_P1;PMS_P2;Temp;Humidity;BMP_temperature;BMP_pressure;BME280_temperature;BME280_humidity;BME280_pressure;Samples;Min_cycle;Max_cycle;Signal;HPM_P1;HPM_P2
2022/12/05 00:00:53;;;;;;;22.33;12.50;;;;;;;;;;4971716;28;20051;-69
2022/12/05 00:03:20;;;;;;;27.33;13.45;;;;;;;;;;4955831;28;20057;-69
2022/12/05 00:05:49;;;;;;;25.45;13.15;;;;;;;;;;4972074;28;20346;-69
2022/12/05 00:08:16;;;;;;;22.90;12.63;;;;;;;;;;4971736;28;20109;-70
2022/12/05 00:10:42;;;;;;;22.15;12.20;;;;;;;;;;4944080;28;20469;-69
2022/12/05 00:13:09;;;;;;;23.98;13.43;;;;;;;;;;4974509;28;20062;-69
2022/12/05 00:15:38;;;;;;;22.80;12.93;;;;;;;;;;4972548;28;20059;-69
2022/12/05 00:18:05;;;;;;;23.88;13.55;;;;;;;;;;4956245;29;20133;-70
2022/12/05 00:20:31;;;;;;;22.52;11.98;;;;;;;;;;4956560;29;20051;-68
2022/12/05 00:22:59;;;;;;;22.27;12.70;;;;;;;;;;4988649;28;20074;-69
2022/12/05 00:25:25;;;;;;;25.05;13.27;;;;;;;;;;4974982;28;20058;-69
2022/12/05 00:27:52;;;;;;;23.48;13.30;;;;;;;;;;4975284;28;20055;-68
2022/12/05 00:30:18;;;;;;;24.67;13.15;;;;;;;;;;4976716;28;20051;-69
2022/12/05 00:32:45;;;;;;;22.15;12.07;;;;;;;;;;4976580;28;20058;-70
2022/12/05 00:35:11;;;;;;;25.80;13.38;;;;;;;;;;4975668;28;20077;-69
2022/12/05 00:37:38;;;;;;;27.50;13.60;;;;;;;;;;4976751;28;20055;-69
2022/12/05 00:40:05;;;;;;;25.52;13.15;;;;;;;;;;4975331;28;20166;-69
2022/12/05 00:42:32;;;;;;;26.42;14.25;;;;;;;;;;4975200;28;20093;-69
2022/12/05 00:44:59;;;;;;;29.10;15.13;;;;;;;;;;4974670;28;20055;-69
2022/12/05 00:47:25;;;;;;;23.83;13.30;;;;;;;;;;4975282;28;20054;-69
2022/12/05 00:49:52;;;;;;;21.60;12.98;;;;;;;;;;4976294;28;20050;-68
2022/12/05 00:52:19;;;;;;;24.55;14.52;;;;;;;;;;4975037;28;20421;-69
2022/12/05 00:54:46;;;;;;;24.42;12.73;;;;;;;;;;4943469;28;20133;-68
2022/12/05 00:57:13;;;;;;;23.75;12.50;;;;;;;;;;4958740;28;20494;-67
2022/12/05 00:59:39;;;;;;;22.98;13.48;;;;;;;;;;4956560;29;20050;-68
2022/12/05 01:02:06;;;;;;;26.13;12.98;;;;;;;;;;4956948;28;20055;-69
2022/12/05 01:04:33;;;;;;;24.27;13.68;;;;;;;;;;4961819;28;20047;-68
2022/12/05 01:07:00;;;;;;;24.15;14.18;;;;;;;;;;4976109;28;20058;-69
2022/12/05 01:09:26;;;;;;;23.55;13.25;;;;;;;;;;4975717;28;20046;-67
2022/12/05 01:11:53;;;;;;;25.33;13.23;;;;;;;;;;4974506;28;20469;-69
2022/12/05 01:14:22;;;;;;;26.15;13.82;;;;;;;;;;4974061;28;20147;-68
2022/12/05 01:16:50;;;;;;;24.45;13.60;;;;;;;;;;4939768;28;20051;-69
2022/12/05 01:19:22;;;;;;;24.42;13.30;;;;;;;;;;4955123;29;20082;-70
2022/12/05 01:21:49;;;;;;;22.70;12.95;;;;;;;;;;4954270;28;20055;-69
2022/12/05 01:24:16;;;;;;;25.42;13.55;;;;;;;;;;4955123;29;20051;-69
2022/12/05 01:26:43;;;;;;;23.20;13.38;;;;;;;;;;4955560;29;20118;-69
2022/12/05 01:29:12;;;;;;;24.33;13.48;;;;;;;;;;4939490;29;20059;-69
2022/12/05 01:31:39;;;;;;;24.60;13.48;;;;;;;;;;4956306;28;20062;-68
2022/12/05 01:34:07;;;;;;;20.17;11.65;;;;;;;;;;4968127;28;20054;-69
2022/12/05 01:36:34;;;;;;;23.10;11.85;;;;;;;;;;4974257;28;20055;-69
2022/12/05 01:39:00;;;;;;;25.45;12.48;;;;;;;;;;4958203;28;20517;-70
2022/12/05 01:41:31;;;;;;;24.67;14.27;;;;;;;;;;4973952;28;20051;-69
2022/12/05 01:44:01;;;;;;;19.90;11.38;;;;;;;;;;4942828;28;20520;-70
2022/12/05 01:46:35;;;;;;;17.27;11.00;;;;;;;;;;4975294;28;20054;-69
2022/12/05 01:49:18;;;;;;;20.63;12.00;;;;;;;;;;4943415;28;20063;-69
2022/12/05 01:51:49;;;;;;;22.27;11.85;;;;;;;;;;4973474;28;20186;-69
2022/12/05 01:54:17;;;;;;;20.63;12.00;;;;;;;;;;4957830;28;20058;-68
2022/12/05 01:56:47;;;;;;;24.08;12.85;;;;;;;;;;4956463;28;20057;-69
2022/12/05 01:59:14;;;;;;;23.95;12.60;;;;;;;;;;4958073;28;20192;-70
2022/12/05 02:01:40;;;;;;;22.08;13.00;;;;;;;;;;4957680;28;20078;-70
2022/12/05 02:04:07;;;;;;;19.00;11.70;;;;;;;;;;4964245;28;20047;-69
2022/12/05 02:06:34;;;;;;;19.60;11.70;;;;;;;;;;4970416;28;20082;-68
2022/12/05 02:09:00;;;;;;;24.13;12.18;;;;;;;;;;4986461;28;20059;-69
2022/12/05 02:11:28;;;;;;;22.48;11.88;;;;;;;;;;4986112;28;20063;-69
2022/12/05 02:14:25;;;;;;;18.70;10.52;;;;;;;;;;4964595;28;20050;-69
2022/12/05 02:17:09;;;;;;;20.83;12.00;;;;;;;;;;4959010;28;20050;-68
2022/12/05 02:19:54;;;;;;;23.58;11.77;;;;;;;;;;4974611;28;20097;-68
2022/12/05 02:22:40;;;;;;;22.58;12.52;;;;;;;;;;4974450;28;20134;-70
2022/12/05 02:25:18;;;;;;;21.63;11.45;;;;;;;;;;4958419;28;20047;-68
2022/12/05 02:28:22;;;;;;;21.75;12.18;;;;;;;;;;4986235;28;20047;-69
2022/12/05 02:31:00;;;;;;;21.08;11.45;;;;;;;;;;4954851;29;20051;-69
2022/12/05 02:33:34;;;;;;;20.80;11.63;;;;;;;;;;4956413;28;20051;-70
2022/12/05 02:36:27;;;;;;;20.30;11.90;;;;;;;;;;4973441;28;20119;-68
2022/12/05 02:39:14;;;;;;;19.15;10.70;;;;;;;;;;4958438;28;20055;-69
2022/12/05 02:41:54;;;;;;;18.02;10.85;;;;;;;;;;4957346;28;20097;-69
2022/12/05 02:44:50;;;;;;;19.15;10.82;;;;;;;;;;4958143;28;20172;-70
2022/12/05 02:47:18;;;;;;;19.27;10.68;;;;;;;;;;4963614;28;20100;-68
2022/12/05 02:49:45;;;;;;;17.58;10.48;;;;;;;;;;4957108;28;20051;-68
2022/12/05 02:52:13;;;;;;;21.35;10.60;;;;;;;;;;4956629;28;20089;-68
2022/12/05 02:54:42;;;;;;;19.13;11.15;;;;;;;;;;4956970;28;20054;-69
2022/12/05 02:57:09;;;;;;;19.20;10.57;;;;;;;;;;4956995;28;20081;-69
2022/12/05 02:59:36;;;;;;;17.20;10.77;;;;;;;;;;4956956;28;20101;-70
2022/12/05 03:02:03;;;;;;;20.15;10.93;;;;;;;;;;4940861;28;20078;-70
2022/12/05 03:04:30;;;;;;;22.85;10.65;;;;;;;;;;4944025;29;20059;-70
2022/12/05 03:07:06;;;;;;;18.90;10.15;;;;;;;;;;4953638;29;20149;-71
2022/12/05 03:09:32;;;;;;;19.23;11.55;;;;;;;;;;4968206;28;20055;-70
2022/12/05 03:12:09;;;;;;;23.45;11.40;;;;;;;;;;4954606;28;20055;-68
2022/12/05 03:14:43;;;;;;;20.92;11.10;;;;;;;;;;4971415;28;20411;-70
2022/12/05 03:17:12;;;;;;;24.27;11.57;;;;;;;;;;4958549;29;20125;-71
2022/12/05 03:20:03;;;;;;;18.23;11.10;;;;;;;;;;4975287;28;20055;-70
2022/12/05 03:22:48;;;;;;;18.00;10.65;;;;;;;;;;4960174;29;20055;-70
2022/12/05 03:25:15;;;;;;;22.42;11.43;;;;;;;;;;4956885;28;20055;-69
2022/12/05 03:28:06;;;;;;;20.10;11.63;;;;;;;;;;4937610;29;20506;-71
2022/12/05 03:30:34;;;;;;;23.95;12.10;;;;;;;;;;4953108;29;20094;-70
2022/12/05 03:33:09;;;;;;;21.08;11.73;;;;;;;;;;4952920;28;20514;-70
2022/12/05 03:35:44;;;;;;;20.88;12.38;;;;;;;;;;4952914;29;20546;-68
2022/12/05 03:38:14;;;;;;;22.83;11.65;;;;;;;;;;4954207;28;20050;-71
2022/12/05 03:40:56;;;;;;;20.33;12.07;;;;;;;;;;4953831;28;20047;-70
2022/12/05 03:43:44;;;;;;;20.50;11.32;;;;;;;;;;4953593;28;20494;-70
2022/12/05 03:46:39;;;;;;;22.70;12.45;;;;;;;;;;4952843;29;20117;-70
2022/12/05 03:49:09;;;;;;;21.38;11.65;;;;;;;;;;4966934;28;20057;-69
2022/12/05 03:52:04;;;;;;;19.48;11.27;;;;;;;;;;4936223;29;20122;-70
2022/12/05 03:54:38;;;;;;;20.02;10.65;;;;;;;;;;4950563;29;20134;-71
2022/12/05 03:57:08;;;;;;;;;;;;;;;;;;4957140;28;20457;-69
2022/12/05 03:59:56;;;;;;;25.63;12.43;;;;;;;;;;4956190;28;19955;-69
2022/12/05 04:02:54;;;;;;;24.80;12.48;;;;;;;;;;4956161;28;20063;-70
2022/12/05 04:05:30;;;;;;;22.15;12.05;;;;;;;;;;4971168;28;20059;-70
2022/12/05 04:08:05;;;;;;;26.85;13.07;;;;;;;;;;4971891;28;20473;-69
2022/12/05 04:10:47;;;;;;;22.50;12.32;;;;;;;;;;4979114;23;20498;-63
2022/12/05 04:13:39;;;;;;;22.58;12.45;;;;;;;;;;4972173;28;20086;-65
2022/12/05 04:18:58;;;;;;;20.13;10.80;;;;;;;;;;4972952;28;20501;-64
2022/12/05 04:21:39;;;;;;;23.38;12.07;;;;;;;;;;4971126;28;20077;-64
2022/12/05 04:27:20;;;;;;;21.33;11.13;;;;;;;;;;4971744;28;20070;-64
2022/12/05 04:29:52;;;;;;;21.88;12.52;;;;;;;;;;4971775;28;20399;-65
2022/12/05 04:32:18;;;;;;;24.27;13.13;;;;;;;;;;4971765;28;20093;-64
2022/12/05 04:34:46;;;;;;;23.67;12.32;;;;;;;;;;4971732;28;20098;-65
2022/12/05 04:37:14;;;;;;;23.10;12.15;;;;;;;;;;4955584;28;20055;-63
2022/12/05 04:39:54;;;;;;;21.58;12.25;;;;;;;;;;4955654;28;20565;-64
2022/12/05 04:42:24;;;;;;;24.70;13.63;;;;;;;;;;4972789;28;20046;-65
2022/12/05 04:44:59;;;;;;;19.20;11.15;;;;;;;;;;4955610;28;20055;-64
2022/12/05 04:47:27;;;;;;;25.85;14.30;;;;;;;;;;4972818;28;20050;-64
2022/12/05 04:49:54;;;;;;;24.65;12.55;;;;;;;;;;4971498;28;20114;-64
2022/12/05 04:52:21;;;;;;;22.77;11.75;;;;;;;;;;4955377;28;20078;-64
2022/12/05 04:55:12;;;;;;;24.40;11.05;;;;;;;;;;4972157;28;20055;-64
2022/12/05 04:57:41;;;;;;;24.33;12.73;;;;;;;;;;4975418;28;20058;-64
2022/12/05 05:00:08;;;;;;;20.90;11.63;;;;;;;;;;4974978;28;20055;-65
2022/12/05 05:02:54;;;;;;;21.67;11.77;;;;;;;;;;4975898;28;20446;-65
2022/12/05 05:05:21;;;;;;;27.38;12.27;;;;;;;;;;4959717;28;20053;-63
2022/12/05 05:07:51;;;;;;;21.65;12.40;;;;;;;;;;4974661;28;20493;-64
2022/12/05 05:10:34;;;;;;;23.13;12.48;;;;;;;;;;4958864;28;20078;-65
2022/12/05 05:13:01;;;;;;;20.67;11.50;;;;;;;;;;4974684;28;20130;-65
2022/12/05 05:15:27;;;;;;;20.42;12.55;;;;;;;;;;4975962;28;20190;-65
2022/12/05 05:17:54;;;;;;;22.58;11.68;;;;;;;;;;4975842;28;20417;-66
2022/12/05 05:20:23;;;;;;;21.33;11.18;;;;;;;;;;4975698;28;20051;-65
2022/12/05 05:22:51;;;;;;;21.42;11.98;;;;;;;;;;4975657;28;20050;-65
2022/12/05 05:25:18;;;;;;;21.15;11.70;;;;;;;;;;4975635;28;20086;-66
2022/12/05 05:27:52;;;;;;;20.27;11.38;;;;;;;;;;4975820;28;20461;-65
2022/12/05 05:30:20;;;;;;;19.70;11.77;;;;;;;;;;4975734;28;20129;-64
2022/12/05 05:32:47;;;;;;;22.13;12.52;;;;;;;;;;4975517;28;20078;-65
2022/12/05 05:35:14;;;;;;;19.63;11.82;;;;;;;;;;4975364;28;20090;-64
2022/12/05 05:37:41;;;;;;;22.15;11.93;;;;;;;;;;4978953;28;20086;-66
2022/12/05 05:40:09;;;;;;;23.60;12.25;;;;;;;;;;4994737;28;20464;-65
2022/12/05 05:42:44;;;;;;;22.25;12.52;;;;;;;;;;4994815;28;20120;-66
2022/12/05 05:45:11;;;;;;;27.27;13.80;;;;;;;;;;4994935;28;20093;-66
2022/12/05 05:47:38;;;;;;;24.30;12.43;;;;;;;;;;4994735;28;20063;-64
2022/12/05 05:50:06;;;;;;;20.95;12.27;;;;;;;;;;4994783;28;20054;-66
2022/12/05 05:52:36;;;;;;;20.50;12.30;;;;;;;;;;4994427;28;20050;-67
2022/12/05 05:55:04;;;;;;;23.70;12.15;;;;;;;;;;4994589;28;20050;-65
2022/12/05 05:57:31;;;;;;;23.27;12.02;;;;;;;;;;4994694;28;20050;-66
2022/12/05 05:59:58;;;;;;;19.67;10.57;;;;;;;;;;4994646;28;20065;-65
2022/12/05 06:02:25;;;;;;;17.45;11.45;;;;;;;;;;4993250;28;20074;-66
2022/12/05 06:04:51;;;;;;;17.70;11.23;;;;;;;;;;4994408;28;20078;-65
2022/12/05 06:07:18;;;;;;;21.55;11.95;;;;;;;;;;4993992;28;20568;-65
2022/12/05 06:09:45;;;;;;;20.10;11.25;;;;;;;;;;4994155;28;20054;-65
2022/12/05 06:12:11;;;;;;;21.17;12.52;;;;;;;;;;4977045;28;20500;-66
2022/12/05 06:14:38;;;;;;;22.95;12.32;;;;;;;;;;4974884;28;20569;-65
2022/12/05 06:17:04;;;;;;;25.50;12.55;;;;;;;;;;4975037;28;20062;-64
2022/12/05 06:19:31;;;;;;;22.00;13.15;;;;;;;;;;4974777;28;20050;-64
2022/12/05 06:21:58;;;;;;;21.17;12.50;;;;;;;;;;4981210;28;20094;-65
2022/12/05 06:24:24;;;;;;;21.42;11.93;;;;;;;;;;4993378;28;20046;-64
2022/12/05 06:26:51;;;;;;;21.40;12.35;;;;;;;;;;4994536;28;20054;-65
2022/12/05 06:29:18;;;;;;;20.65;12.20;;;;;;;;;;4992908;28;20050;-66
2022/12/05 06:31:50;;;;;;;21.15;12.93;;;;;;;;;;4974856;28;20046;-65
2022/12/05 06:34:17;;;;;;;22.48;11.48;;;;;;;;;;4974758;28;20055;-65
2022/12/05 06:36:44;;;;;;;18.17;10.80;;;;;;;;;;4974612;28;20097;-66
2022/12/05 06:39:10;;;;;;;21.33;12.18;;;;;;;;;;4974386;28;20089;-65
2022/12/05 06:41:37;;;;;;;21.40;11.55;;;;;;;;;;4974501;28;20051;-64
2022/12/05 06:44:03;;;;;;;23.52;13.52;;;;;;;;;;4974411;28;20085;-64
2022/12/05 06:46:30;;;;;;;26.40;16.52;;;;;;;;;;4974115;28;20090;-66
2022/12/05 06:48:57;;;;;;;24.92;15.48;;;;;;;;;;4974163;28;20081;-65
2022/12/05 06:51:24;;;;;;;34.33;20.08;;;;;;;;;;4974007;28;20489;-65
2022/12/05 06:53:51;;;;;;;37.97;21.05;;;;;;;;;;4974329;28;20051;-65
2022/12/05 06:56:18;;;;;;;36.25;22.55;;;;;;;;;;4974167;28;20074;-65
2022/12/05 06:58:48;;;;;;;24.27;14.57;;;;;;;;;;4974075;28;20101;-65
2022/12/05 07:04:02;;;;;;;23.35;13.07;;;;;;;;;;4974160;28;20133;-64
2022/12/05 07:06:29;;;;;;;21.30;12.25;;;;;;;;;;4973773;28;20050;-66
2022/12/05 07:08:56;;;;;;;23.08;13.18;;;;;;;;;;4974002;28;20051;-65
2022/12/05 07:11:22;;;;;;;21.40;12.32;;;;;;;;;;4973521;28;20051;-64
2022/12/05 07:13:49;;;;;;;20.63;11.93;;;;;;;;;;4973743;28;20074;-63
2022/12/05 07:16:16;;;;;;;19.52;11.30;;;;;;;;;;4973911;28;20494;-62
2022/12/05 07:18:42;;;;;;;27.70;12.00;;;;;;;;;;4973008;28;20466;-63
2022/12/05 07:21:11;;;;;;;22.33;12.43;;;;;;;;;;4971355;28;20055;-64
2022/12/05 07:23:40;;;;;;;21.77;12.35;;;;;;;;;;4971806;28;20509;-65
2022/12/05 07:26:08;;;;;;;22.63;12.55;;;;;;;;;;4970340;28;20078;-65
2022/12/05 07:28:35;;;;;;;20.77;12.80;;;;;;;;;;4971506;28;20055;-63
2022/12/05 07:31:04;;;;;;;19.88;12.07;;;;;;;;;;4971115;28;20117;-63
2022/12/05 07:33:31;;;;;;;22.13;12.63;;;;;;;;;;4970930;28;20100;-64
2022/12/05 07:36:06;;;;;;;26.73;13.75;;;;;;;;;;4971402;28;20058;-65
2022/12/05 07:38:33;;;;;;;26.45;13.35;;;;;;;;;;4971863;28;20051;-65
2022/12/05 07:41:07;;;;;;;20.67;11.98;;;;;;;;;;4970944;28;20054;-63
2022/12/05 07:43:39;;;;;;;17.73;10.90;;;;;;;;;;4971833;28;20061;-61
2022/12/05 07:46:07;;;;;;;16.80;11.55;;;;;;;;;;4970122;28;20113;-63
2022/12/05 07:48:33;;;;;;;17.73;10.70;;;;;;;;;;4971113;28;20426;-66
2022/12/05 07:51:04;;;;;;;19.58;10.55;;;;;;;;;;4971256;28;20058;-63
2022/12/05 07:53:31;;;;;;;19.77;11.43;;;;;;;;;;4971393;28;20059;-63
2022/12/05 07:55:59;;;;;;;16.27;10.60;;;;;;;;;;4971131;28;20055;-65
2022/12/05 07:58:27;;;;;;;17.08;11.15;;;;;;;;;;4971450;28;20101;-66
2022/12/05 08:00:55;;;;;;;14.63;10.07;;;;;;;;;;4969260;28;20513;-64
2022/12/05 08:03:21;;;;;;;14.68;10.73;;;;;;;;;;4971033;28;20055;-64
2022/12/05 08:05:48;;;;;;;17.85;10.57;;;;;;;;;;4970995;28;20058;-64
2022/12/05 08:08:15;;;;;;;20.65;10.02;;;;;;;;;;4970428;28;20133;-64
2022/12/05 08:10:41;;;;;;;17.13;10.18;;;;;;;;;;4971028;28;20055;-64
2022/12/05 08:13:08;;;;;;;16.63;10.48;;;;;;;;;;4970346;28;20051;-64
2022/12/05 08:15:35;;;;;;;14.93;10.57;;;;;;;;;;4970963;28;20097;-64
2022/12/05 08:18:02;;;;;;;16.80;10.57;;;;;;;;;;4971016;28;20047;-67
2022/12/05 08:20:29;;;;;;;17.80;10.52;;;;;;;;;;4970671;28;20042;-64
2022/12/05 08:22:56;;;;;;;18.05;10.23;;;;;;;;;;4970515;28;20271;-65
2022/12/05 08:25:22;;;;;;;15.38;9.02;;;;;;;;;;4971502;28;20109;-66
2022/12/05 08:27:49;;;;;;;16.77;9.30;;;;;;;;;;4972175;28;20051;-70
2022/12/05 08:30:16;;;;;;;17.23;9.52;;;;;;;;;;4975495;28;20054;-63
2022/12/05 08:32:42;;;;;;;16.40;8.85;;;;;;;;;;4976327;28;20042;-67
2022/12/05 08:35:09;;;;;;;14.85;9.32;;;;;;;;;;4976230;28;20055;-64
2022/12/05 08:37:35;;;;;;;15.80;9.55;;;;;;;;;;4976366;28;20078;-64
2022/12/05 08:40:03;;;;;;;15.88;9.52;;;;;;;;;;4975854;28;20100;-64
2022/12/05 08:42:30;;;;;;;15.25;10.30;;;;;;;;;;4976452;28;20079;-64
2022/12/05 08:44:56;;;;;;;16.38;10.48;;;;;;;;;;4976067;28;20078;-63
2022/12/05 08:47:23;;;;;;;17.20;10.30;;;;;;;;;;4976476;28;20398;-60
2022/12/05 08:49:50;;;;;;;15.23;9.73;;;;;;;;;;4975119;28;20429;-64
2022/12/05 08:52:17;;;;;;;15.57;9.95;;;;;;;;;;4976084;28;20086;-63
2022/12/05 08:54:43;;;;;;;12.70;8.40;;;;;;;;;;4976058;28;20465;-64
2022/12/05 08:57:10;;;;;;;15.40;9.57;;;;;;;;;;4976397;28;20050;-64
2022/12/05 08:59:36;;;;;;;14.23;9.32;;;;;;;;;;4976035;28;20502;-61
2022/12/05 09:02:03;;;;;;;13.70;9.30;;;;;;;;;;4975915;28;20105;-64
2022/12/05 09:04:30;;;;;;;13.93;8.52;;;;;;;;;;4975967;28;20462;-63
2022/12/05 09:06:56;;;;;;;15.00;9.68;;;;;;;;;;4975743;28;20047;-63
2022/12/05 09:09:23;;;;;;;14.88;9.48;;;;;;;;;;4976028;28;20050;-63
2022/12/05 09:11:50;;;;;;;15.23;9.20;;;;;;;;;;4975614;28;20047;-64
2022/12/05 09:14:17;;;;;;;14.27;9.00;;;;;;;;;;4975918;28;20085;-64
2022/12/05 09:16:45;;;;;;;15.13;9.48;;;;;;;;;;4975699;28;20101;-65
2022/12/05 09:19:19;;;;;;;14.90;8.93;;;;;;;;;;4975768;28;20058;-65
2022/12/05 09:21:46;;;;;;;14.75;9.27;;;;;;;;;;4975425;28;20387;-64
2022/12/05 09:24:13;;;;;;;11.02;7.10;;;;;;;;;;4975956;28;20046;-64
2022/12/05 09:26:40;;;;;;;13.13;8.27;;;;;;;;;;4974388;28;20050;-65
2022/12/05 09:29:06;;;;;;;13.60;9.43;;;;;;;;;;4975781;28;20055;-63
2022/12/05 09:31:44;;;;;;;14.85;9.35;;;;;;;;;;4975148;28;20429;-63
2022/12/05 09:34:12;;;;;;;14.30;9.10;;;;;;;;;;4975706;28;20153;-64
2022/12/05 09:36:39;;;;;;;13.45;8.63;;;;;;;;;;4975197;28;20057;-63
2022/12/05 09:39:07;;;;;;;14.75;8.77;;;;;;;;;;4975539;28;20055;-65
2022/12/05 09:42:08;;;;;;;16.92;8.98;;;;;;;;;;4974120;28;20054;-64
2022/12/05 09:44:52;;;;;;;14.52;8.73;;;;;;;;;;4975599;28;20109;-63
2022/12/05 09:47:21;;;;;;;11.95;7.90;;;;;;;;;;4973936;28;20047;-63
2022/12/05 09:49:50;;;;;;;14.55;8.82;;;;;;;;;;4975235;28;20564;-64
2022/12/05 09:52:34;;;;;;;14.60;8.73;;;;;;;;;;4972541;28;20047;-64
2022/12/05 09:55:04;;;;;;;12.05;7.80;;;;;;;;;;4973418;28;20082;-63
2022/12/05 09:57:35;;;;;;;10.82;7.43;;;;;;;;;;4973792;28;20051;-65
2022/12/05 10:00:04;;;;;;;11.13;7.70;;;;;;;;;;4973394;28;20101;-64
2022/12/05 10:02:52;;;;;;;13.20;9.43;;;;;;;;;;4974571;28;20046;-67
2022/12/05 10:05:26;;;;;;;11.77;8.23;;;;;;;;;;4975129;28;20105;-64
2022/12/05 10:08:18;;;;;;;14.38;7.93;;;;;;;;;;4958160;28;20418;-63
2022/12/05 10:11:35;;;;;;;10.50;7.85;;;;;;;;;;4969567;28;20086;-65
2022/12/05 10:14:05;;;;;;;16.50;8.43;;;;;;;;;;4969210;28;20067;-64
2022/12/05 10:16:37;;;;;;;14.10;8.10;;;;;;;;;;4974931;28;20055;-64
2022/12/05 10:19:09;;;;;;;11.25;7.53;;;;;;;;;;4958096;28;20494;-64
2022/12/05 10:21:41;;;;;;;13.75;8.23;;;;;;;;;;4973310;28;20055;-64
2022/12/05 10:24:15;;;;;;;20.63;9.35;;;;;;;;;;4957622;28;20050;-64
2022/12/05 10:27:09;;;;;;;11.95;8.32;;;;;;;;;;4957401;28;20082;-64
2022/12/05 10:29:43;;;;;;;11.02;7.65;;;;;;;;;;4972145;28;20078;-63
2022/12/05 10:32:19;;;;;;;12.52;8.93;;;;;;;;;;4974393;28;20051;-63
2022/12/05 10:34:45;;;;;;;13.52;8.35;;;;;;;;;;4957620;28;20058;-64
2022/12/05 10:37:21;;;;;;;14.00;9.65;;;;;;;;;;4974444;28;20101;-64
2022/12/05 10:39:49;;;;;;;13.20;9.15;;;;;;;;;;4972988;28;20102;-64
2022/12/05 10:42:31;;;;;;;14.40;9.35;;;;;;;;;;4972689;28;20075;-64
2022/12/05 10:45:01;;;;;;;13.30;8.63;;;;;;;;;;4958691;28;20493;-65
2022/12/05 10:47:29;;;;;;;15.40;9.05;;;;;;;;;;4973295;28;20058;-64
2022/12/05 10:49:56;;;;;;;14.18;8.95;;;;;;;;;;4957169;28;20047;-63
2022/12/05 10:52:23;;;;;;;14.20;9.93;;;;;;;;;;4956352;28;20134;-63
2022/12/05 10:55:16;;;;;;;15.15;9.52;;;;;;;;;;4973733;28;20470;-64
2022/12/05 10:57:49;;;;;;;12.52;8.38;;;;;;;;;;4972920;28;20086;-65
2022/12/05 11:00:18;;;;;;;15.23;9.50;;;;;;;;;;4973071;28;20054;-64
2022/12/05 11:02:46;;;;;;;12.18;8.60;;;;;;;;;;4957256;28;20078;-64
2022/12/05 11:05:25;;;;;;;15.85;9.40;;;;;;;;;;4973871;28;20407;-64
2022/12/05 11:07:52;;;;;;;17.50;10.65;;;;;;;;;;4957900;28;20046;-65
2022/12/05 11:10:36;;;;;;;15.65;10.23;;;;;;;;;;4928397;28;20054;-65
2022/12/05 11:13:14;;;;;;;17.42;10.18;;;;;;;;;;4963681;28;20125;-63
2022/12/05 11:15:45;;;;;;;18.02;10.35;;;;;;;;;;4960544;28;20129;-66
2022/12/05 11:18:33;;;;;;;21.38;12.75;;;;;;;;;;4964827;28;20514;-63
2022/12/05 11:21:11;;;;;;;19.63;12.13;;;;;;;;;;4968912;28;20097;-65
2022/12/05 11:23:38;;;;;;;18.20;10.68;;;;;;;;;;4961011;28;20098;-65
2022/12/05 11:26:18;;;;;;;17.05;9.68;;;;;;;;;;4960451;28;20129;-64
2022/12/05 11:28:45;;;;;;;17.55;10.43;;;;;;;;;;4978172;28;20125;-65
2022/12/05 11:31:11;;;;;;;13.80;9.90;;;;;;;;;;4956740;28;20086;-68
2022/12/05 11:33:39;;;;;;;14.88;9.65;;;;;;;;;;4964367;28;20053;-70
2022/12/05 11:36:17;;;;;;;16.15;10.18;;;;;;;;;;4961849;28;20057;-71
2022/12/05 11:38:44;;;;;;;19.00;11.07;;;;;;;;;;4976247;28;20086;-65
2022/12/05 11:41:14;;;;;;;16.63;10.25;;;;;;;;;;4959872;28;20051;-73
2022/12/05 11:44:00;;;;;;;13.85;9.85;;;;;;;;;;4958580;28;20128;-71
2022/12/05 11:46:40;;;;;;;15.35;9.63;;;;;;;;;;4963901;28;20043;-70
2022/12/05 11:49:12;;;;;;;13.25;8.65;;;;;;;;;;4960746;28;20083;-65
2022/12/05 11:51:50;;;;;;;12.52;8.55;;;;;;;;;;4955156;28;20114;-70
2022/12/05 11:54:17;;;;;;;13.85;9.23;;;;;;;;;;4940847;28;20055;-73
2022/12/05 11:57:19;;;;;;;13.48;9.07;;;;;;;;;;4964265;28;20101;-65
2022/12/05 12:00:01;;;;;;;13.75;8.90;;;;;;;;;;4959691;28;20557;-65
2022/12/05 12:02:30;;;;;;;10.60;8.45;;;;;;;;;;4958171;28;20050;-65
2022/12/05 12:05:15;;;;;;;13.48;9.23;;;;;;;;;;4965694;28;20047;-64
2022/12/05 12:08:08;;;;;;;15.50;9.63;;;;;;;;;;4960063;28;20129;-63
2022/12/05 12:10:51;;;;;;;11.50;8.48;;;;;;;;;;4955300;28;20454;-64
2022/12/05 12:13:30;;;;;;;14.37;9.70;;;;;;;;;;4959611;28;20580;-64
2022/12/05 12:16:22;;;;;;;13.15;8.45;;;;;;;;;;4957652;28;20051;-63
2022/12/05 12:19:27;;;;;;;11.47;8.33;;;;;;;;;;4955980;28;20051;-64
2022/12/05 12:21:54;;;;;;;10.65;7.93;;;;;;;;;;4942636;28;20047;-65
2022/12/05 12:24:30;;;;;;;14.98;9.02;;;;;;;;;;4956448;28;20098;-63
2022/12/05 12:27:04;;;;;;;16.58;9.52;;;;;;;;;;4957048;28;20078;-63
2022/12/05 12:29:35;;;;;;;15.05;9.77;;;;;;;;;;4956485;28;20051;-63
2022/12/05 12:32:19;;;;;;;12.25;8.32;;;;;;;;;;4954380;28;20145;-65
2022/12/05 12:35:01;;;;;;;;;;;;;;;;;;4958764;28;20111;-63
2022/12/05 12:37:57;;;;;;;17.13;9.50;;;;;;;;;;4959921;28;19965;-64
2022/12/05 12:40:26;;;;;;;14.40;9.80;;;;;;;;;;4973323;28;20415;-66
2022/12/05 12:43:11;;;;;;;16.38;9.82;;;;;;;;;;4958695;28;20058;-69
2022/12/05 12:46:10;;;;;;;16.02;9.85;;;;;;;;;;4956628;28;20459;-63
2022/12/05 12:48:50;;;;;;;15.35;9.23;;;;;;;;;;4959502;28;20417;-71
2022/12/05 12:51:17;;;;;;;14.02;10.18;;;;;;;;;;4975068;28;20050;-71
2022/12/05 12:53:46;;;;;;;13.48;9.48;;;;;;;;;;4966496;28;20411;-68
2022/12/05 12:56:16;;;;;;;14.55;9.05;;;;;;;;;;4961051;28;20059;-68
2022/12/05 12:59:26;;;;;;;16.33;9.45;;;;;;;;;;4960312;28;20058;-68
2022/12/05 13:02:00;;;;;;;15.45;10.05;;;;;;;;;;4951932;28;20055;-68
2022/12/05 13:04:39;;;;;;;11.68;8.57;;;;;;;;;;4966957;28;20082;-68
2022/12/05 13:07:14;;;;;;;13.10;9.35;;;;;;;;;;4975352;28;20055;-68
2022/12/05 13:09:46;;;;;;;12.50;8.82;;;;;;;;;;4956460;28;20051;-68
2022/12/05 13:12:21;;;;;;;13.57;9.48;;;;;;;;;;4960462;28;20055;-68
2022/12/05 13:14:51;;;;;;;14.32;9.25;;;;;;;;;;4958549;28;20063;-67
2022/12/05 13:17:19;;;;;;;11.73;8.35;;;;;;;;;;4960987;28;20047;-69
2022/12/05 13:19:51;;;;;;;14.13;9.45;;;;;;;;;;4975124;28;20097;-68
2022/12/05 13:22:20;;;;;;;13.25;8.57;;;;;;;;;;4994237;28;20070;-68
2022/12/05 13:24:46;;;;;;;13.15;9.52;;;;;;;;;;4993819;28;20081;-66
2022/12/05 13:27:17;;;;;;;11.25;7.55;;;;;;;;;;4993635;28;20142;-65
2022/12/05 13:29:52;;;;;;;13.65;7.40;;;;;;;;;;4979703;28;20050;-66
2022/12/05 13:32:26;;;;;;;11.40;8.25;;;;;;;;;;4975234;28;20058;-62
2022/12/05 13:34:54;;;;;;;12.02;7.80;;;;;;;;;;4975689;28;20146;-67
2022/12/05 13:43:26;;;;;;;19.85;8.80;;;;;;;;;;4955641;28;20047;-66
2022/12/05 13:46:07;;;;;;;22.33;10.05;;;;;;;;;;4969693;28;20079;-70
2022/12/05 13:48:38;;;;;;;15.13;9.48;;;;;;;;;;4963443;28;20046;-70
2022/12/05 13:51:13;;;;;;;16.05;9.20;;;;;;;;;;4969159;28;20488;-69
2022/12/05 13:53:43;;;;;;;15.48;9.25;;;;;;;;;;4963120;28;20055;-69
2022/12/05 13:56:12;;;;;;;12.27;8.38;;;;;;;;;;4962495;28;20450;-69
2022/12/05 13:58:52;;;;;;;13.95;9.40;;;;;;;;;;4960874;28;20569;-68
2022/12/05 14:01:25;;;;;;;14.13;8.88;;;;;;;;;;4963880;28;20043;-71
2022/12/05 14:03:57;;;;;;;16.38;9.88;;;;;;;;;;4963494;28;20058;-70
2022/12/05 14:06:47;;;;;;;20.38;10.68;;;;;;;;;;4962911;28;20043;-70
2022/12/05 14:09:16;;;;;;;12.40;8.57;;;;;;;;;;4963836;28;20537;-70
2022/12/05 14:12:11;;;;;;;14.85;9.85;;;;;;;;;;4963231;28;20514;-71
2022/12/05 14:14:56;;;;;;;12.68;8.38;;;;;;;;;;4968566;28;20043;-70
2022/12/05 14:17:40;;;;;;;15.65;9.35;;;;;;;;;;4967469;28;20089;-63
2022/12/05 14:20:44;;;;;;;13.95;9.82;;;;;;;;;;4977736;28;20075;-66
2022/12/05 14:23:16;;;;;;;;;;;;;;;;;;4964707;28;20141;-63
2022/12/05 14:26:05;;;;;;;14.05;9.15;;;;;;;;;;4961414;28;19926;-65
2022/12/05 14:28:57;;;;;;;15.55;10.68;;;;;;;;;;4964178;28;20054;-63
2022/12/05 14:31:46;;;;;;;14.05;9.48;;;;;;;;;;4961819;28;20046;-62
2022/12/05 14:34:21;;;;;;;18.23;10.82;;;;;;;;;;4979232;28;20094;-64
2022/12/05 14:37:00;;;;;;;15.88;9.75;;;;;;;;;;4968375;28;20051;-63
2022/12/05 14:39:37;;;;;;;16.73;11.00;;;;;;;;;;4971453;28;20465;-65
2022/12/05 14:42:21;;;;;;;15.35;10.55;;;;;;;;;;4982414;28;20055;-66
2022/12/05 14:44:49;;;;;;;14.35;9.35;;;;;;;;;;4982820;28;20471;-64
2022/12/05 14:47:20;;;;;;;17.33;11.20;;;;;;;;;;4979306;28;20150;-63
2022/12/05 14:49:57;;;;;;;18.70;13.23;;;;;;;;;;4966390;28;20502;-63
2022/12/05 14:52:25;;;;;;;21.20;12.18;;;;;;;;;;4982411;28;20079;-64
2022/12/05 14:54:53;;;;;;;17.63;12.07;;;;;;;;;;4982040;28;20124;-65
2022/12/05 14:57:20;;;;;;;16.67;11.60;;;;;;;;;;4978153;28;20103;-65
2022/12/05 14:59:55;;;;;;;17.35;12.10;;;;;;;;;;4978074;28;20055;-64
2022/12/05 15:02:28;;;;;;;16.52;11.40;;;;;;;;;;4980020;28;20047;-65
2022/12/05 15:05:03;;;;;;;17.65;11.90;;;;;;;;;;4964356;28;20453;-64
2022/12/05 15:07:32;;;;;;;18.60;12.18;;;;;;;;;;4976322;28;20078;-63
2022/12/05 15:10:10;;;;;;;16.92;12.20;;;;;;;;;;4962174;28;20089;-64